createdAt,value
2023-06-22T00:02:35.032Z,18.20
2023-06-22T00:06:17.171Z,18.10
2023-06-22T00:09:59.043Z,18.00
2023-06-22T00:13:40.890Z,18.00
2023-06-22T00:17:22.743Z,18.00
2023-06-22T00:21:05.426Z,17.90
2023-06-22T00:24:47.224Z,17.90
2023-06-22T00:28:30.040Z,17.80
2023-06-22T00:32:11.947Z,17.80
2023-06-22T00:35:56.686Z,17.70
2023-06-22T00:39:38.471Z,17.60
2023-06-22T00:43:20.709Z,17.60
2023-06-22T00:47:03.392Z,17.50
2023-06-22T00:50:45.415Z,17.40
2023-06-22T00:54:27.574Z,17.30
2023-06-22T00:58:11.835Z,17.20
2023-06-22T01:01:53.922Z,17.20
2023-06-22T01:05:37.250Z,17.10
2023-06-22T01:09:32.372Z,17.20
2023-06-22T01:13:40.791Z,17.10
2023-06-22T01:17:24.242Z,17.10
2023-06-22T01:21:10.566Z,17.00
2023-06-22T01:24:55.352Z,17.00
2023-06-22T01:28:49.995Z,16.90
2023-06-22T01:32:34.023Z,16.90
2023-06-22T01:36:17.526Z,16.80
2023-06-22T01:40:00.494Z,16.80
2023-06-22T01:43:43.754Z,16.80
2023-06-22T01:47:26.573Z,16.70
2023-06-22T01:51:08.600Z,16.70
2023-06-22T01:54:50.399Z,16.70
2023-06-22T01:58:33.156Z,16.70
2023-06-22T02:02:20.617Z,16.70
2023-06-22T02:06:09.131Z,16.70
2023-06-22T02:09:53.703Z,16.60
2023-06-22T02:13:37.264Z,16.60
2023-06-22T02:17:19.588Z,16.50
2023-06-22T02:21:01.402Z,16.50
2023-06-22T02:24:43.231Z,16.50
2023-06-22T02:28:25.036Z,16.50
2023-06-22T02:32:07.224Z,16.50
2023-06-22T02:35:50.174Z,16.50
2023-06-22T02:39:32.073Z,16.40
2023-06-22T02:43:17.871Z,16.40
2023-06-22T02:46:59.946Z,16.40
2023-06-22T02:50:41.722Z,16.30
2023-06-22T02:54:23.519Z,16.30
2023-06-22T02:58:05.808Z,16.40
2023-06-22T03:01:47.660Z,16.30
2023-06-22T03:05:29.458Z,16.30
2023-06-22T03:09:11.912Z,16.30
2023-06-22T03:12:53.750Z,16.30
2023-06-22T03:16:35.746Z,16.30
2023-06-22T03:20:17.541Z,16.30
2023-06-22T03:23:59.337Z,16.30
2023-06-22T03:27:42.001Z,16.20
2023-06-22T03:31:24.571Z,16.20
2023-06-22T03:35:07.780Z,16.10
2023-06-22T03:38:50.868Z,16.10
2023-06-22T03:42:32.644Z,16.00
2023-06-22T03:46:14.507Z,16.00
2023-06-22T03:49:56.423Z,16.00
2023-06-22T03:53:38.251Z,16.00
2023-06-22T03:57:20.070Z,15.90
2023-06-22T04:01:01.899Z,15.90
2023-06-22T04:04:43.803Z,15.90
2023-06-22T04:08:25.776Z,15.80
2023-06-22T04:12:08.131Z,15.80
2023-06-22T04:15:49.995Z,15.80
2023-06-22T04:19:31.993Z,15.80
2023-06-22T04:23:14.246Z,15.80
2023-06-22T04:26:56.183Z,15.70
2023-06-22T04:30:47.155Z,15.70
2023-06-22T04:34:29.005Z,15.70
2023-06-22T04:38:14.246Z,15.70
2023-06-22T04:42:01.244Z,15.70
2023-06-22T04:45:43.139Z,15.60
2023-06-22T04:49:33.557Z,15.60
2023-06-22T04:53:15.358Z,15.60
2023-06-22T04:56:59.920Z,15.60
2023-06-22T05:00:41.752Z,15.70
2023-06-22T05:04:24.895Z,15.70
2023-06-22T05:08:07.964Z,15.70
2023-06-22T05:11:49.758Z,15.70
2023-06-22T05:15:37.780Z,15.80
2023-06-22T05:19:19.598Z,15.80
2023-06-22T05:23:01.489Z,15.80
2023-06-22T05:26:43.270Z,15.90
2023-06-22T05:30:25.063Z,16.00
2023-06-22T05:34:06.919Z,16.00
2023-06-22T05:37:49.383Z,16.20
2023-06-22T05:41:31.134Z,16.30
2023-06-22T05:45:13.020Z,16.30
2023-06-22T05:48:54.789Z,16.40
2023-06-22T05:52:36.629Z,16.40
2023-06-22T05:56:18.722Z,16.50
2023-06-22T06:00:00.522Z,16.50
2023-06-22T06:03:42.665Z,16.50
2023-06-22T06:07:24.917Z,16.50
2023-06-22T06:11:06.961Z,16.60
2023-06-22T06:14:48.936Z,16.70
2023-06-22T06:18:30.724Z,16.80
2023-06-22T06:22:12.649Z,17.00
2023-06-22T06:25:54.514Z,17.20
2023-06-22T06:29:36.286Z,17.50
2023-06-22T06:33:18.186Z,17.80
2023-06-22T06:36:59.981Z,18.10
2023-06-22T06:40:42.121Z,18.50
2023-06-22T06:44:23.956Z,19.00
2023-06-22T06:48:05.997Z,19.50
2023-06-22T06:51:47.821Z,19.90
2023-06-22T06:55:34.023Z,20.40
2023-06-22T06:59:16.531Z,20.80
2023-06-22T07:02:58.368Z,21.20
2023-06-22T07:06:40.184Z,21.70
2023-06-22T07:10:22.133Z,22.10
2023-06-22T07:14:04.140Z,22.40
2023-06-22T07:17:46.050Z,22.80
2023-06-22T07:21:27.955Z,23.20
2023-06-22T07:25:10.553Z,23.70
2023-06-22T07:28:52.351Z,24.10
2023-06-22T07:32:34.183Z,24.50
2023-06-22T07:36:16.080Z,24.90
2023-06-22T07:40:00.826Z,25.20
2023-06-22T07:43:42.701Z,25.60
2023-06-22T07:47:27.537Z,25.90
2023-06-22T07:51:09.403Z,26.10
2023-06-22T07:54:51.258Z,26.50
2023-06-22T07:58:33.048Z,26.80
2023-06-22T08:02:14.946Z,27.20
2023-06-22T08:05:56.916Z,27.50
2023-06-22T08:09:38.715Z,27.60
2023-06-22T08:13:20.678Z,27.90
2023-06-22T08:17:02.452Z,28.10
2023-06-22T08:20:44.670Z,28.50
2023-06-22T08:24:26.464Z,28.80
2023-06-22T08:28:08.374Z,29.20
2023-06-22T08:31:50.225Z,29.50
2023-06-22T08:35:32.510Z,29.80
2023-06-22T08:39:14.650Z,30.10
2023-06-22T08:42:56.572Z,30.50
2023-06-22T08:46:39.995Z,30.90
2023-06-22T08:50:21.804Z,31.30
2023-06-22T08:54:03.728Z,31.10
2023-06-22T08:57:45.791Z,31.10
2023-06-22T09:01:27.576Z,30.90
2023-06-22T09:05:09.962Z,30.50
2023-06-22T09:08:51.901Z,29.90
2023-06-22T09:12:34.241Z,29.50
2023-06-22T09:16:16.206Z,29.70
2023-06-22T09:19:58.109Z,30.30
2023-06-22T09:23:40.013Z,30.50
2023-06-22T09:27:21.871Z,30.40
2023-06-22T09:31:03.653Z,30.70
2023-06-22T09:34:45.620Z,31.20
2023-06-22T09:38:27.392Z,31.50
2023-06-22T09:42:09.505Z,32.00
2023-06-22T09:45:51.567Z,32.60
2023-06-22T09:49:47.402Z,33.10
2023-06-22T09:53:30.092Z,33.80
2023-06-22T09:57:13.241Z,34.00
2023-06-22T10:00:55.495Z,34.10
2023-06-22T10:04:37.800Z,34.10
2023-06-22T10:08:20.019Z,34.50
2023-06-22T10:12:01.862Z,34.90
2023-06-22T10:15:43.963Z,35.00
2023-06-22T10:19:25.764Z,34.50
2023-06-22T10:23:07.636Z,33.80
2023-06-22T10:26:49.546Z,33.10
2023-06-22T10:30:31.491Z,33.00
2023-06-22T10:34:13.295Z,33.40
2023-06-22T10:37:55.995Z,33.80
2023-06-22T10:41:37.779Z,34.10
2023-06-22T10:45:19.621Z,34.80
2023-06-22T10:49:01.437Z,35.50
2023-06-22T10:52:43.364Z,36.30
2023-06-22T10:56:25.176Z,36.90
2023-06-22T11:00:08.186Z,37.60
2023-06-22T11:03:50.028Z,38.10
2023-06-22T11:07:32.323Z,38.10
2023-06-22T11:11:14.145Z,38.10
2023-06-22T11:14:59.577Z,38.40
2023-06-22T11:18:41.724Z,38.80
2023-06-22T11:22:23.535Z,38.90
2023-06-22T11:26:05.313Z,38.30
2023-06-22T11:29:47.165Z,37.60
2023-06-22T11:33:28.960Z,37.30
2023-06-22T11:37:10.776Z,37.60
2023-06-22T11:40:52.546Z,38.10
2023-06-22T11:44:34.336Z,38.60
2023-06-22T11:48:16.151Z,39.20
2023-06-22T11:51:58.032Z,39.50
2023-06-22T11:55:39.795Z,39.00
2023-06-22T11:59:23.415Z,38.10
2023-06-22T12:03:05.666Z,37.20
2023-06-22T12:06:47.568Z,36.60
2023-06-22T12:10:32.671Z,36.70
2023-06-22T12:14:14.739Z,37.40
2023-06-22T12:17:56.576Z,38.20
2023-06-22T12:21:39.355Z,38.90
2023-06-22T12:25:21.272Z,39.60
2023-06-22T12:29:03.173Z,40.10
2023-06-22T12:32:44.952Z,40.80
2023-06-22T12:36:26.771Z,41.30
2023-06-22T12:40:09.345Z,41.70
2023-06-22T12:43:51.151Z,41.40
2023-06-22T12:47:33.087Z,40.60
2023-06-22T12:51:23.062Z,39.50
2023-06-22T12:55:05.106Z,38.60
2023-06-22T12:58:47.045Z,37.80
2023-06-22T13:02:28.869Z,36.90
2023-06-22T13:06:10.752Z,36.10
2023-06-22T13:09:53.358Z,36.10
2023-06-22T13:13:35.534Z,37.00
2023-06-22T13:17:17.520Z,38.00
2023-06-22T13:20:59.429Z,38.90
2023-06-22T13:24:41.186Z,39.60
2023-06-22T13:28:28.332Z,40.20
2023-06-22T13:32:10.762Z,40.60
2023-06-22T13:35:52.590Z,40.80
2023-06-22T13:39:34.397Z,41.20
2023-06-22T13:43:16.965Z,41.60
2023-06-22T13:46:58.929Z,42.00
2023-06-22T13:50:40.799Z,42.10
2023-06-22T13:54:29.323Z,42.20
2023-06-22T13:58:12.022Z,41.70
2023-06-22T14:01:53.821Z,40.90
2023-06-22T14:05:35.659Z,40.00
2023-06-22T14:09:17.500Z,39.10
2023-06-22T14:13:01.095Z,38.30
2023-06-22T14:16:42.853Z,37.50
2023-06-22T14:20:24.698Z,36.80
2023-06-22T14:24:06.694Z,36.20
2023-06-22T14:27:48.552Z,35.80
2023-06-22T14:31:30.470Z,35.50
2023-06-22T14:35:12.429Z,35.20
2023-06-22T14:38:54.256Z,34.90
2023-06-22T14:42:36.406Z,34.60
2023-06-22T14:46:21.442Z,34.40
2023-06-22T14:50:03.559Z,34.10
2023-06-22T14:53:46.580Z,33.90
2023-06-22T14:57:28.551Z,33.80
2023-06-22T15:01:10.386Z,33.60
2023-06-22T15:04:54.110Z,33.50
2023-06-22T15:08:37.722Z,33.40
2023-06-22T15:12:19.602Z,33.20
2023-06-22T15:16:02.274Z,33.10
2023-06-22T15:19:44.094Z,32.90
2023-06-22T15:23:26.851Z,32.80
2023-06-22T15:27:08.730Z,32.60
2023-06-22T15:30:50.964Z,32.50
2023-06-22T15:34:32.917Z,32.30
2023-06-22T15:38:14.818Z,32.10
2023-06-22T15:41:56.907Z,31.90
2023-06-22T15:45:38.731Z,31.90
2023-06-22T15:49:20.615Z,31.60
2023-06-22T15:53:04.684Z,31.40
2023-06-22T15:56:46.585Z,31.10
2023-06-22T16:00:28.876Z,31.00
2023-06-22T16:04:10.879Z,31.00
2023-06-22T16:07:52.682Z,30.90
2023-06-22T16:11:34.490Z,30.80
2023-06-22T16:15:16.405Z,30.70
2023-06-22T16:18:58.268Z,30.70
2023-06-22T16:22:40.375Z,30.70
2023-06-22T16:26:22.301Z,30.60
2023-06-22T16:30:04.592Z,30.50
2023-06-22T16:33:49.064Z,30.50
2023-06-22T16:37:30.930Z,30.50
2023-06-22T16:41:13.714Z,30.40
2023-06-22T16:44:55.539Z,30.40
2023-06-22T16:48:38.208Z,30.30
2023-06-22T16:52:20.125Z,30.20
2023-06-22T16:56:02.121Z,30.10
2023-06-22T16:59:43.888Z,30.10
2023-06-22T17:03:34.692Z,29.90
2023-06-22T17:07:20.739Z,29.80
2023-06-22T17:11:02.789Z,29.70
2023-06-22T17:14:45.572Z,29.60
2023-06-22T17:18:27.682Z,29.60
2023-06-22T17:22:09.472Z,29.60
2023-06-22T17:25:53.984Z,29.40
2023-06-22T17:29:36.021Z,29.30
2023-06-22T17:33:20.239Z,29.20
2023-06-22T17:37:02.720Z,29.20
2023-06-22T17:40:44.534Z,29.20
2023-06-22T17:44:29.526Z,29.10
2023-06-22T17:48:11.782Z,29.00
2023-06-22T17:51:54.063Z,29.00
2023-06-22T17:55:35.943Z,28.70
2023-06-22T17:59:19.805Z,28.50
2023-06-22T18:03:01.831Z,28.30
2023-06-22T18:06:46.533Z,28.20
2023-06-22T18:10:30.176Z,28.00
2023-06-22T18:14:14.703Z,27.90
2023-06-22T18:17:56.592Z,27.70
2023-06-22T18:21:38.868Z,27.60
2023-06-22T18:25:21.351Z,27.60
2023-06-22T18:29:04.265Z,27.50
2023-06-22T18:32:46.168Z,27.30
2023-06-22T18:36:30.707Z,27.20
2023-06-22T18:40:17.959Z,27.20
2023-06-22T18:44:01.202Z,27.10
2023-06-22T18:47:57.400Z,27.00
2023-06-22T18:52:04.259Z,26.90
2023-06-22T18:55:51.366Z,26.80
2023-06-22T18:59:46.741Z,26.70
2023-06-22T19:03:33.207Z,26.60
2023-06-22T19:07:15.415Z,26.50
2023-06-22T19:11:13.691Z,26.50
2023-06-22T19:15:20.478Z,26.40
2023-06-22T19:19:14.210Z,26.30
2023-06-22T19:22:58.361Z,26.20
2023-06-22T19:26:51.187Z,26.20
2023-06-22T19:30:33.655Z,26.00
2023-06-22T19:34:16.087Z,25.90
2023-06-22T19:37:57.980Z,25.90
2023-06-22T19:41:40.302Z,25.70
2023-06-22T19:45:22.507Z,25.70
2023-06-22T19:49:04.355Z,25.60
2023-06-22T19:52:48.381Z,25.40
2023-06-22T19:56:30.505Z,25.20
2023-06-22T20:00:14.114Z,25.10
2023-06-22T20:03:56.743Z,24.90
2023-06-22T20:07:43.095Z,24.80
2023-06-22T20:11:30.619Z,24.60
2023-06-22T20:15:21.095Z,24.50
2023-06-22T20:19:12.757Z,24.40
2023-06-22T20:22:58.259Z,24.30
2023-06-22T20:26:41.488Z,24.10
2023-06-22T20:30:23.490Z,24.00
2023-06-22T20:34:05.347Z,23.80
2023-06-22T20:37:48.704Z,23.60
2023-06-22T20:41:32.618Z,23.40
2023-06-22T20:45:14.457Z,23.20
2023-06-22T20:48:56.291Z,23.10
2023-06-22T20:52:41.193Z,23.00
2023-06-22T20:56:23.008Z,22.80
2023-06-22T21:00:08.814Z,22.70
2023-06-22T21:03:50.745Z,22.70
2023-06-22T21:07:32.618Z,22.60
2023-06-22T21:11:14.559Z,22.40
2023-06-22T21:14:56.745Z,22.30
2023-06-22T21:18:39.184Z,22.20
2023-06-22T21:22:21.336Z,22.20
2023-06-22T21:26:03.182Z,22.10
2023-06-22T21:29:44.994Z,22.10
2023-06-22T21:33:26.854Z,22.00
2023-06-22T21:37:08.691Z,22.00
2023-06-22T21:40:50.491Z,21.80
2023-06-22T21:44:32.330Z,21.60
2023-06-22T21:48:14.128Z,21.60
2023-06-22T21:51:55.906Z,21.50
2023-06-22T21:55:37.744Z,21.50
2023-06-22T21:59:19.558Z,21.30
2023-06-22T22:03:01.493Z,21.10
2023-06-22T22:06:43.579Z,21.00
2023-06-22T22:10:25.357Z,21.00
2023-06-22T22:14:09.766Z,21.00
2023-06-22T22:17:51.655Z,20.90
2023-06-22T22:21:33.837Z,20.80
2023-06-22T22:25:15.630Z,20.70
2023-06-22T22:28:58.249Z,20.60
2023-06-22T22:32:40.095Z,20.60
2023-06-22T22:36:21.916Z,20.40
2023-06-22T22:40:07.847Z,20.30
2023-06-22T22:43:49.647Z,20.10
2023-06-22T22:47:32.149Z,20.10
2023-06-22T22:51:14.315Z,20.00
2023-06-22T22:54:57.060Z,19.90
2023-06-22T22:58:39.072Z,19.80
2023-06-22T23:02:23.076Z,19.90
2023-06-22T23:06:05.138Z,19.90
2023-06-22T23:09:49.101Z,19.90
2023-06-22T23:13:30.995Z,19.90
2023-06-22T23:17:12.869Z,19.80
2023-06-22T23:20:54.693Z,19.80
2023-06-22T23:24:37.149Z,19.80
2023-06-22T23:28:25.703Z,19.70
2023-06-22T23:32:18.337Z,19.60
2023-06-22T23:36:00.595Z,19.50
2023-06-22T23:39:44.616Z,19.40
2023-06-22T23:43:26.447Z,19.30
2023-06-22T23:47:08.284Z,19.20
2023-06-22T23:50:51.008Z,19.10
2023-06-22T23:54:32.778Z,19.00
2023-06-22T23:58:18.617Z,19.00
